Waterloo, Pennsylvania
Current Conditions -  °F | °C
As of 2:53 AM on Saturday 20 Dec 2014 (Local Time) from KAOO Reporting Station
Overcast Overcast  
Wind Chill: 17°   Ceiling: 2100
Heat Index: 25°   Visibility: 10mi
Dew Point: 19°   Wind: 7mph
Humidity: 78%   Direction: 280°W
Pressure: 30.21"   Gusts: NA
Location:  40.3617°N, 77.6745°W
Report Text: KAOO 200753Z AUTO 28006KT 10SM OVC021 M04/M07 A3021 RMK AO2 SLP250 T10391072
Loading
Personal Weather Stations






























Interactive Weather Map New forecast layout! Learn more

10-Day Weather Forecast

Advertisements
Track Severe Weather on mobile